Dijksgracht — PBNQ — position and weather

sailwx.info

Track history (hours):
 
Tides and Currents Weather Stations Pressure Air Temp Water Temp Dewpoint Dewpoint Depression Visibility Wind Speed Wind Dir Waves Ship Positions

Dijksgracht

Last reported at 2018-May-18 15:23 UTC. Time now 2018-May-24 23:25 UTC.
Position N 14°30' W 060°32'.

Length 157 m; draft 6.4 m.

Type: Cargo ship. MMSI: 244670592.

Date/timePositionNaut miles runAvg speedWind from/ knotsBaromVisibWave heightAir tempDewpointWater temp
2018-May-18 15:23N 14°30' W 060°32'616.0
2018-May-18 15:01N 14°27' W 060°38'916.9
2018-May-18 14:30N 14°24' W 060°46'815.5
2018-May-18 14:01N 14°22' W 060°53'5 9.8
2018-May-18 13:30N 14°27' W 060°54'1 2.5
2018-May-18 12:59N 14°27' W 060°53'0 0.0
2018-May-18 12:29N 14°27' W 060°53'0 0.0
2018-May-18 11:59N 14°27' W 060°53'0 0.1
2018-May-18 11:29N 14°27' W 060°53'0 0.1
2018-May-18 10:59N 14°27' W 060°53'0 0.0
2018-May-18 10:29N 14°27' W 060°53'0 0.0
2018-May-18 09:59N 14°27' W 060°53'0 0.0
2018-May-18 09:29N 14°27' W 060°53'0 0.0
2018-May-18 08:59N 14°27' W 060°53'0 0.0
2018-May-18 08:29N 14°27' W 060°53'0 0.0
2018-May-18 07:59N 14°27' W 060°53'0 0.0
2018-May-18 07:29N 14°27' W 060°53'0 0.0
2018-May-18 06:59N 14°27' W 060°53'0 0.0
2018-May-18 06:29N 14°27' W 060°53'0 0.0
2018-May-18 05:59N 14°27' W 060°53'0 0.0
2018-May-18 05:29N 14°27' W 060°53'0 0.0
2018-May-18 04:59N 14°27' W 060°53'0 0.0
2018-May-18 04:29N 14°27' W 060°53'0 0.0
2018-May-18 03:59N 14°27' W 060°53'0 0.0
2018-May-18 03:29N 14°27' W 060°53'0 0.0
2018-May-18 02:59N 14°27' W 060°53'0 0.0
2018-May-18 02:29N 14°27' W 060°53'0 0.0
2018-May-18 01:59N 14°27' W 060°53'0 0.0
2018-May-18 01:29N 14°27' W 060°53'0 0.1
2018-May-18 00:59N 14°27' W 060°53'0 0.1
2018-May-18 00:29N 14°27' W 060°53'0 0.0
2018-May-17 23:59N 14°27' W 060°53'0 0.1
2018-May-17 23:29N 14°27' W 060°53'0 0.0
2018-May-17 22:59N 14°27' W 060°53'0 0.0
2018-May-17 22:26N 14°27' W 060°53'0 0.0
2018-May-17 21:59N 14°27' W 060°53'0 0.1
2018-May-17 21:26N 14°27' W 060°53'0 0.0
2018-May-17 20:59N 14°27' W 060°53'0 0.0
2018-May-17 20:29N 14°27' W 060°53'0 0.1
2018-May-17 19:59N 14°27' W 060°53'0 0.1
2018-May-17 19:29N 14°27' W 060°53'0 0.0
2018-May-17 18:59N 14°27' W 060°53'0 0.1
2018-May-17 18:29N 14°28' W 060°53'0 0.2
2018-May-17 17:59N 14°27' W 060°53'0 0.1
2018-May-17 17:29N 14°27' W 060°53'0 0.1
2018-May-17 16:59N 14°27' W 060°53'0 0.0
2018-May-17 16:29N 14°27' W 060°53'0 0.1
2018-May-17 15:59N 14°27' W 060°53'0 0.2
2018-May-17 15:29N 14°28' W 060°53'0 0.2
2018-May-17 14:59N 14°27' W 060°53'0 0.1
2018-May-17 14:29N 14°27' W 060°53'0 0.1
2018-May-17 13:59N 14°27' W 060°53'0 0.1
2018-May-17 13:29N 14°27' W 060°53'0 0.1
2018-May-17 12:59N 14°27' W 060°53'0 0.0
2018-May-17 12:29N 14°27' W 060°53'0 0.2
2018-May-17 11:59N 14°27' W 060°53'0 0.1
2018-May-17 11:29N 14°28' W 060°53'0 0.3
2018-May-17 11:01N 14°27' W 060°53'1 1.9
2018-May-17 10:31N 14°27' W 060°54'3 6.7
2018-May-17 10:01N 14°26' W 060°57'3 6.7
2018-May-17 09:31N 14°25' W 061°00'4 8.4
2018-May-17 09:00N 14°26' W 061°05'5 9.7
2018-May-17 08:30N 14°27' W 061°10'510.0
2018-May-17 08:00N 14°31' W 061°12'610.4
2018-May-17 07:25N 14°37' W 061°14'162 3.9
2018-May-15 14:20N 17°12' W 062°03'515.6
2018-May-15 14:00N 17°13' W 062°08'815.5
2018-May-15 13:31N 17°16' W 062°15'815.4
2018-May-15 13:00N 17°19' W 062°23'815.6
2018-May-15 12:30N 17°22' W 062°30'3014.4
2018-May-15 10:26N 17°29' W 063°01'0 0.7
2018-May-15 09:52N 17°29' W 063°01'0 0.0
2018-May-15 07:49N 17°29' W 063°01'0 0.0
2018-May-15 07:24N 17°29' W 063°01'0 0.0
2018-May-15 06:58N 17°29' W 063°01'0 0.0
2018-May-15 06:26N 17°29' W 063°01'0 0.0
2018-May-15 05:53N 17°29' W 063°01'0 0.0
2018-May-15 05:29N 17°29' W 063°01'0 0.0
2018-May-15 05:00N 17°29' W 063°01'0 0.1
2018-May-15 04:28N 17°29' W 063°01'0 0.0
2018-May-15 03:49N 17°29' W 063°01'0 0.1
2018-May-15 03:30N 17°29' W 063°01'0 0.0
2018-May-15 02:59N 17°29' W 063°01'0 0.0
2018-May-15 02:11N 17°29' W 063°01'0 0.2
2018-May-15 01:52N 17°29' W 063°01'2 4.3
2018-May-15 01:24N 17°30' W 063°02'513.0
2018-May-15 00:59N 17°35' W 063°05'815.6
2018-May-15 00:28N 17°41' W 063°11'816.0
2018-May-15 00:00N 17°44' W 063°18'815.7
2018-May-14 23:30N 17°48' W 063°25'  
Track history (hours):
 
Tides and Currents Weather Stations Pressure Air Temp Water Temp Dewpoint Dewpoint Depression Visibility Wind Speed Wind Dir Waves Ship Positions

Dijksgracht

Last reported at 2018-May-18 15:23 UTC. Time now 2018-May-24 23:25 UTC.
Position N 14°30' W 060°32'.

Length 157 m; draft 6.4 m.

Type: Cargo ship. MMSI: 244670592.

Date/timePositionNaut miles runAvg speedWind from/ knotsBaromVisibWave heightAir tempDewpointWater temp
2018-May-18 15:23N 14°30' W 060°32'616.0
2018-May-18 15:01N 14°27' W 060°38'916.9
2018-May-18 14:30N 14°24' W 060°46'815.5
2018-May-18 14:01N 14°22' W 060°53'5 9.8
2018-May-18 13:30N 14°27' W 060°54'1 2.5
2018-May-18 12:59N 14°27' W 060°53'0 0.0
2018-May-18 12:29N 14°27' W 060°53'0 0.0
2018-May-18 11:59N 14°27' W 060°53'0 0.1
2018-May-18 11:29N 14°27' W 060°53'0 0.1
2018-May-18 10:59N 14°27' W 060°53'0 0.0
2018-May-18 10:29N 14°27' W 060°53'0 0.0
2018-May-18 09:59N 14°27' W 060°53'0 0.0
2018-May-18 09:29N 14°27' W 060°53'0 0.0
2018-May-18 08:59N 14°27' W 060°53'0 0.0
2018-May-18 08:29N 14°27' W 060°53'0 0.0
2018-May-18 07:59N 14°27' W 060°53'0 0.0
2018-May-18 07:29N 14°27' W 060°53'0 0.0
2018-May-18 06:59N 14°27' W 060°53'0 0.0
2018-May-18 06:29N 14°27' W 060°53'0 0.0
2018-May-18 05:59N 14°27' W 060°53'0 0.0
2018-May-18 05:29N 14°27' W 060°53'0 0.0
2018-May-18 04:59N 14°27' W 060°53'0 0.0
2018-May-18 04:29N 14°27' W 060°53'0 0.0
2018-May-18 03:59N 14°27' W 060°53'0 0.0
2018-May-18 03:29N 14°27' W 060°53'0 0.0
2018-May-18 02:59N 14°27' W 060°53'0 0.0
2018-May-18 02:29N 14°27' W 060°53'0 0.0
2018-May-18 01:59N 14°27' W 060°53'0 0.0
2018-May-18 01:29N 14°27' W 060°53'0 0.1
2018-May-18 00:59N 14°27' W 060°53'0 0.1
2018-May-18 00:29N 14°27' W 060°53'0 0.0
2018-May-17 23:59N 14°27' W 060°53'0 0.1
2018-May-17 23:29N 14°27' W 060°53'0 0.0
2018-May-17 22:59N 14°27' W 060°53'0 0.0
2018-May-17 22:26N 14°27' W 060°53'0 0.0
2018-May-17 21:59N 14°27' W 060°53'0 0.1
2018-May-17 21:26N 14°27' W 060°53'0 0.0
2018-May-17 20:59N 14°27' W 060°53'0 0.0
2018-May-17 20:29N 14°27' W 060°53'0 0.1
2018-May-17 19:59N 14°27' W 060°53'0 0.1
2018-May-17 19:29N 14°27' W 060°53'0 0.0
2018-May-17 18:59N 14°27' W 060°53'0 0.1
2018-May-17 18:29N 14°28' W 060°53'0 0.2
2018-May-17 17:59N 14°27' W 060°53'0 0.1
2018-May-17 17:29N 14°27' W 060°53'0 0.1
2018-May-17 16:59N 14°27' W 060°53'0 0.0
2018-May-17 16:29N 14°27' W 060°53'0 0.1
2018-May-17 15:59N 14°27' W 060°53'0 0.2
2018-May-17 15:29N 14°28' W 060°53'0 0.2
2018-May-17 14:59N 14°27' W 060°53'0 0.1
2018-May-17 14:29N 14°27' W 060°53'0 0.1
2018-May-17 13:59N 14°27' W 060°53'0 0.1
2018-May-17 13:29N 14°27' W 060°53'0 0.1
2018-May-17 12:59N 14°27' W 060°53'0 0.0
2018-May-17 12:29N 14°27' W 060°53'0 0.2
2018-May-17 11:59N 14°27' W 060°53'0 0.1
2018-May-17 11:29N 14°28' W 060°53'0 0.3
2018-May-17 11:01N 14°27' W 060°53'1 1.9
2018-May-17 10:31N 14°27' W 060°54'3 6.7
2018-May-17 10:01N 14°26' W 060°57'3 6.7
2018-May-17 09:31N 14°25' W 061°00'4 8.4
2018-May-17 09:00N 14°26' W 061°05'5 9.7
2018-May-17 08:30N 14°27' W 061°10'510.0
2018-May-17 08:00N 14°31' W 061°12'610.4
2018-May-17 07:25N 14°37' W 061°14'162 3.9
2018-May-15 14:20N 17°12' W 062°03'515.6
2018-May-15 14:00N 17°13' W 062°08'815.5
2018-May-15 13:31N 17°16' W 062°15'815.4
2018-May-15 13:00N 17°19' W 062°23'815.6
2018-May-15 12:30N 17°22' W 062°30'3014.4
2018-May-15 10:26N 17°29' W 063°01'0 0.7
2018-May-15 09:52N 17°29' W 063°01'0 0.0
2018-May-15 07:49N 17°29' W 063°01'0 0.0
2018-May-15 07:24N 17°29' W 063°01'0 0.0
2018-May-15 06:58N 17°29' W 063°01'0 0.0
2018-May-15 06:26N 17°29' W 063°01'0 0.0
2018-May-15 05:53N 17°29' W 063°01'0 0.0
2018-May-15 05:29N 17°29' W 063°01'0 0.0
2018-May-15 05:00N 17°29' W 063°01'0 0.1
2018-May-15 04:28N 17°29' W 063°01'0 0.0
2018-May-15 03:49N 17°29' W 063°01'0 0.1
2018-May-15 03:30N 17°29' W 063°01'0 0.0
2018-May-15 02:59N 17°29' W 063°01'0 0.0
2018-May-15 02:11N 17°29' W 063°01'0 0.2
2018-May-15 01:52N 17°29' W 063°01'2 4.3
2018-May-15 01:24N 17°30' W 063°02'513.0
2018-May-15 00:59N 17°35' W 063°05'815.6
2018-May-15 00:28N 17°41' W 063°11'816.0
2018-May-15 00:00N 17°44' W 063°18'815.7
2018-May-14 23:30N 17°48' W 063°25'  

Dump ship's entire track history